Time;durP1;ratioP1;P1;durP2;ratioP2;P2;SDS_P1;SDS_P2;PMS_P1;PMS_P2;Temp;Humidity;BMP_temperature;BMP_pressure;BME280_temperature;BME280_humidity;BME280_pressure;Samples;Min_cycle;Max_cycle;Signal;HPM_P1;HPM_P2
2022/08/16 00:01:28;;;;;;;10.05;8.98;;;;;;;18.57;65.45;94397.16;5037060;28;20024;-78
2022/08/16 00:03:53;;;;;;;10.73;9.38;;;;;;;18.48;65.50;94396.44;5056445;28;20410;-78
2022/08/16 00:06:19;;;;;;;11.05;9.25;;;;;;;18.50;65.59;94393.66;5056271;28;20037;-79
2022/08/16 00:08:45;;;;;;;10.00;9.00;;;;;;;18.52;65.46;94402.13;5056394;28;20033;-78
2022/08/16 00:11:10;;;;;;;10.70;9.63;;;;;;;18.45;65.69;94386.31;5039675;28;20025;-78
2022/08/16 00:13:36;;;;;;;10.07;9.07;;;;;;;18.34;65.66;94381.53;5039465;28;20037;-78
2022/08/16 00:16:01;;;;;;;11.32;9.43;;;;;;;18.40;65.77;94388.66;5056346;28;20083;-78
2022/08/16 00:18:27;;;;;;;12.75;9.60;;;;;;;18.44;66.37;94397.00;5039514;28;20097;-78
2022/08/16 00:20:52;;;;;;;10.35;9.25;;;;;;;18.52;66.08;94392.44;5039465;28;20490;-78
2022/08/16 00:23:18;;;;;;;10.65;9.60;;;;;;;18.43;66.38;94398.00;5056000;28;20039;-79
2022/08/16 00:25:43;;;;;;;10.52;9.52;;;;;;;18.41;66.45;94402.63;5073888;28;20048;-78
2022/08/16 00:28:09;;;;;;;9.90;8.90;;;;;;;18.42;66.54;94404.28;5039084;28;20529;-78
2022/08/16 00:30:34;;;;;;;10.35;9.30;;;;;;;18.38;66.72;94400.38;5055803;28;20032;-78
2022/08/16 00:33:00;;;;;;;10.18;9.18;;;;;;;18.31;66.79;94405.56;5072413;28;20029;-78
2022/08/16 00:35:30;;;;;;;10.00;8.95;;;;;;;18.23;66.63;94403.84;5039137;28;20050;-78
2022/08/16 00:37:55;;;;;;;10.88;9.77;;;;;;;18.19;67.28;94412.28;5073751;28;20029;-78
2022/08/16 00:40:24;;;;;;;10.60;9.50;;;;;;;18.20;67.17;94406.84;5039081;28;20173;-78
2022/08/16 00:42:50;;;;;;;10.90;9.23;;;;;;;18.14;67.00;94407.59;5038948;28;20072;-78
2022/08/16 00:45:35;;;;;;;10.00;9.00;;;;;;;18.04;66.88;94404.41;5022469;28;20060;-78
2022/08/16 00:48:05;;;;;;;10.38;9.32;;;;;;;18.02;67.27;94398.50;5040150;28;20044;-78
2022/08/16 00:50:31;;;;;;;10.82;9.65;;;;;;;17.85;67.54;94393.44;5022165;28;20056;-78
2022/08/16 00:52:57;;;;;;;10.57;9.57;;;;;;;17.84;67.90;94399.72;5018933;28;20028;-78
2022/08/16 00:55:23;;;;;;;10.85;9.75;;;;;;;17.85;68.27;94403.94;5035006;28;20404;-78
2022/08/16 00:57:49;;;;;;;10.93;9.77;;;;;;;17.92;67.95;94411.13;5051909;28;20033;-78
2022/08/16 01:00:15;;;;;;;11.23;10.02;;;;;;;17.90;67.90;94411.31;5018636;28;20040;-78
2022/08/16 01:02:40;;;;;;;11.23;9.77;;;;;;;17.86;68.13;94405.59;5035220;28;20414;-78
2022/08/16 01:05:06;;;;;;;11.55;9.05;;;;;;;17.82;68.16;94409.56;5018748;28;20025;-78
2022/08/16 01:07:31;;;;;;;11.45;10.23;;;;;;;17.92;67.78;94413.75;5034875;28;20040;-78
2022/08/16 01:09:57;;;;;;;10.95;9.85;;;;;;;17.87;67.54;94416.91;5018502;28;20033;-78
2022/08/16 01:12:23;;;;;;;10.43;9.00;;;;;;;17.88;67.57;94409.84;5051002;28;20462;-78
2022/08/16 01:14:51;;;;;;;11.80;9.70;;;;;;;17.89;67.98;94411.50;5018161;28;20417;-78
2022/08/16 01:17:17;;;;;;;10.48;9.38;;;;;;;17.96;67.83;94420.28;5051507;28;20029;-78
2022/08/16 01:19:49;;;;;;;10.35;9.27;;;;;;;17.96;67.58;94415.00;5051464;28;20044;-78
2022/08/16 01:22:39;;;;;;;12.15;9.68;;;;;;;17.99;67.79;94417.28;5018552;28;20037;-78
2022/08/16 01:25:17;;;;;;;12.85;10.07;;;;;;;17.95;68.00;94429.97;5034534;28;20060;-78
2022/08/16 01:27:46;;;;;;;12.85;9.98;;;;;;;17.99;68.01;94427.78;5018335;28;20183;-78
2022/08/16 01:30:14;;;;;;;11.27;9.82;;;;;;;18.03;67.73;94434.31;5051212;28;20033;-78
2022/08/16 01:32:41;;;;;;;10.43;9.23;;;;;;;18.05;67.26;94430.53;5034796;28;20106;-78
2022/08/16 01:35:44;;;;;;;10.23;9.20;;;;;;;18.14;67.04;94439.13;5052297;28;20322;-78
2022/08/16 01:38:16;;;;;;;11.40;10.25;;;;;;;18.15;67.60;94440.75;5004051;28;20076;-78
2022/08/16 01:40:41;;;;;;;11.05;9.90;;;;;;;17.99;67.73;94418.09;5052352;28;20079;-78
2022/08/16 01:43:07;;;;;;;11.13;9.98;;;;;;;18.14;67.22;94440.94;5011385;28;20500;-79
2022/08/16 01:45:32;;;;;;;10.38;9.38;;;;;;;18.10;67.13;94429.97;4981892;28;20034;-78
2022/08/16 01:47:58;;;;;;;9.70;8.70;;;;;;;18.19;66.80;94443.81;4998085;28;20556;-78
2022/08/16 01:50:23;;;;;;;11.32;9.75;;;;;;;18.12;66.65;94438.47;5028273;28;20029;-78
2022/08/16 01:52:49;;;;;;;10.20;9.20;;;;;;;18.09;66.64;94434.41;5034163;28;20033;-78
2022/08/16 01:55:19;;;;;;;10.10;9.10;;;;;;;18.06;66.65;94434.78;5017780;28;20041;-78
2022/08/16 01:57:45;;;;;;;11.20;9.52;;;;;;;18.09;67.44;94431.78;5018085;28;20029;-78
2022/08/16 02:00:11;;;;;;;10.13;9.15;;;;;;;18.14;66.31;94435.69;5034131;28;20041;-78
2022/08/16 02:02:36;;;;;;;10.02;9.02;;;;;;;18.03;66.16;94423.81;5050436;28;20506;-78
2022/08/16 02:05:03;;;;;;;9.80;8.68;;;;;;;18.04;65.75;94439.38;5017570;28;20048;-78
2022/08/16 02:07:28;;;;;;;9.90;8.88;;;;;;;18.09;66.98;94444.09;5001024;28;20108;-78
2022/08/16 02:09:54;;;;;;;9.93;8.90;;;;;;;17.96;68.07;94426.34;5017583;28;20503;-78
2022/08/16 02:12:19;;;;;;;10.90;8.73;;;;;;;18.06;66.92;94440.03;5033997;28;20029;-78
2022/08/16 02:14:45;;;;;;;9.70;8.70;;;;;;;18.01;67.38;94428.44;5017431;28;20025;-78
2022/08/16 02:17:10;;;;;;;9.52;8.52;;;;;;;18.08;67.62;94448.56;5033589;28;20418;-78
2022/08/16 02:19:38;;;;;;;10.00;9.00;;;;;;;18.03;67.99;94440.38;5017187;28;20033;-78
2022/08/16 02:22:04;;;;;;;11.38;9.18;;;;;;;18.02;68.01;94443.19;5017344;28;20021;-78
2022/08/16 02:24:29;;;;;;;11.15;9.35;;;;;;;18.06;68.04;94465.50;5017102;28;20021;-78
2022/08/16 02:26:55;;;;;;;11.90;8.88;;;;;;;18.02;67.41;94469.47;5033519;28;20037;-78
2022/08/16 02:29:21;;;;;;;11.70;9.63;;;;;;;18.00;67.51;94476.75;5033570;28;20072;-78
2022/08/16 02:31:47;;;;;;;9.95;8.93;;;;;;;17.99;67.81;94509.25;5017008;28;20549;-78
2022/08/16 02:34:12;;;;;;;12.25;10.05;;;;;;;18.05;67.81;94516.41;5033525;28;20033;-78
2022/08/16 02:36:38;;;;;;;10.60;9.45;;;;;;;18.05;68.20;94538.28;5017016;28;20434;-78
2022/08/16 02:39:04;;;;;;;11.18;10.07;;;;;;;17.85;68.52;94545.81;5017031;28;20079;-78
2022/08/16 02:41:30;;;;;;;10.40;9.25;;;;;;;17.84;68.58;94546.84;5033652;28;20029;-78
2022/08/16 02:43:55;;;;;;;12.38;9.52;;;;;;;17.90;68.68;94539.22;5029730;28;20045;-78
2022/08/16 02:46:21;;;;;;;10.63;9.63;;;;;;;17.77;68.90;94519.59;5053374;28;20032;-78
2022/08/16 02:48:46;;;;;;;12.68;10.10;;;;;;;17.83;69.69;94537.31;5050482;28;20041;-78
2022/08/16 02:51:12;;;;;;;12.10;10.90;;;;;;;17.92;69.93;94524.13;5033429;28;20099;-78
2022/08/16 02:53:40;;;;;;;11.63;10.52;;;;;;;17.80;70.10;94514.03;5033487;28;20025;-78
2022/08/16 02:56:06;;;;;;;12.00;9.93;;;;;;;17.98;70.15;94515.50;5016898;28;20025;-78
2022/08/16 02:58:32;;;;;;;11.38;10.27;;;;;;;18.05;69.71;94519.88;5016895;28;20128;-78
2022/08/16 03:00:58;;;;;;;11.38;10.18;;;;;;;18.09;69.54;94515.06;5050995;28;20029;-78
2022/08/16 03:03:25;;;;;;;12.48;11.02;;;;;;;18.11;69.53;94506.97;5016958;28;20522;-78
2022/08/16 03:05:50;;;;;;;11.15;10.05;;;;;;;18.19;69.23;94505.09;5000350;28;20123;-78
2022/08/16 03:08:17;;;;;;;10.30;9.30;;;;;;;18.11;68.86;94483.34;5032953;28;20040;-78
2022/08/16 03:10:43;;;;;;;11.70;10.13;;;;;;;18.20;69.78;94495.41;5015982;28;20033;-78
2022/08/16 03:13:08;;;;;;;10.98;9.65;;;;;;;18.27;69.40;94491.84;5035217;28;20082;-78
2022/08/16 03:15:34;;;;;;;12.45;9.65;;;;;;;18.31;69.57;94485.25;5048457;28;20075;-78
2022/08/16 03:18:00;;;;;;;10.18;9.10;;;;;;;18.28;69.47;94471.66;5017370;28;20025;-78
2022/08/16 03:20:26;;;;;;;11.98;9.65;;;;;;;18.43;68.96;94487.41;5015994;28;20487;-78
2022/08/16 03:22:51;;;;;;;11.07;9.98;;;;;;;18.37;68.80;94488.97;5050366;28;20108;-78
2022/08/16 03:25:17;;;;;;;10.55;9.55;;;;;;;18.28;67.69;94469.84;5018659;28;20104;-78
2022/08/16 03:27:43;;;;;;;11.07;9.80;;;;;;;18.40;67.15;94487.78;4997900;28;20060;-78
2022/08/16 03:30:12;;;;;;;10.13;9.13;;;;;;;18.23;67.41;94479.28;5014374;28;20036;-78
2022/08/16 03:32:37;;;;;;;11.27;9.32;;;;;;;18.27;67.51;94489.22;5030936;28;20025;-78
2022/08/16 03:35:03;;;;;;;10.77;9.68;;;;;;;18.24;68.05;94484.31;5052418;28;20082;-78
2022/08/16 03:37:29;;;;;;;11.13;9.68;;;;;;;18.25;68.57;94469.41;5020430;28;20029;-78
2022/08/16 03:39:54;;;;;;;10.65;9.55;;;;;;;18.36;67.98;94465.47;5009876;28;20036;-78
2022/08/16 03:42:20;;;;;;;10.48;9.48;;;;;;;18.26;67.74;94471.81;5035229;28;20037;-78
2022/08/16 03:44:46;;;;;;;10.70;9.70;;;;;;;18.24;68.23;94480.88;4998982;28;20046;-78
2022/08/16 03:47:11;;;;;;;11.77;10.20;;;;;;;18.18;68.04;94479.00;5012409;28;20029;-78
2022/08/16 03:49:36;;;;;;;10.38;8.95;;;;;;;18.18;68.26;94485.06;5001832;28;20041;-78
2022/08/16 03:52:03;;;;;;;11.02;9.35;;;;;;;18.17;67.81;94472.13;5015544;28;20060;-78
2022/08/16 03:54:28;;;;;;;10.60;9.45;;;;;;;18.29;67.71;94481.16;4997983;28;20048;-78
2022/08/16 03:56:54;;;;;;;11.35;9.65;;;;;;;18.21;67.48;94461.03;4997936;28;20041;-78
2022/08/16 03:59:19;;;;;;;11.13;9.90;;;;;;;18.20;67.60;94455.97;5032743;28;20030;-78
2022/08/16 04:01:45;;;;;;;10.70;9.40;;;;;;;18.26;68.07;94466.56;4993857;28;20488;-78
2022/08/16 04:04:10;;;;;;;10.77;9.68;;;;;;;18.29;67.68;94471.47;5013840;28;20033;-79
2022/08/16 04:06:36;;;;;;;10.98;9.88;;;;;;;18.30;67.59;94473.09;5005314;28;20032;-79
2022/08/16 04:09:01;;;;;;;13.25;9.85;;;;;;;18.26;67.39;94448.16;5045198;28;20048;-78
2022/08/16 04:11:27;;;;;;;10.63;9.43;;;;;;;18.44;67.04;94466.19;4985457;28;20041;-78
2022/08/16 04:13:52;;;;;;;10.75;9.75;;;;;;;18.47;66.80;94471.09;5010460;28;20152;-78
2022/08/16 04:16:18;;;;;;;11.73;10.45;;;;;;;18.64;67.07;94474.31;5012653;28;20422;-78
2022/08/16 04:18:43;;;;;;;10.65;9.55;;;;;;;18.68;66.70;94478.19;4996076;28;20376;-78
2022/08/16 04:21:09;;;;;;;10.73;9.63;;;;;;;18.65;67.00;94470.69;5027206;28;20029;-78
2022/08/16 04:23:36;;;;;;;11.93;9.32;;;;;;;18.69;67.33;94481.66;5015922;28;20073;-78
2022/08/16 04:26:02;;;;;;;10.10;8.73;;;;;;;18.72;67.79;94474.22;5000170;28;20041;-78
2022/08/16 04:28:28;;;;;;;10.85;9.45;;;;;;;18.96;67.49;94472.25;4998308;28;20056;-79
2022/08/16 04:30:54;;;;;;;10.85;8.98;;;;;;;18.89;67.80;94466.13;5017175;28;20205;-79
2022/08/16 04:33:19;;;;;;;10.30;9.18;;;;;;;18.81;66.66;94472.31;5014156;28;20415;-79
2022/08/16 04:35:45;;;;;;;9.68;8.77;;;;;;;18.85;65.31;94464.88;5015730;28;20038;-79
2022/08/16 04:38:10;;;;;;;9.73;8.82;;;;;;;18.95;65.24;94486.44;4997145;28;20088;-78
2022/08/16 04:40:36;;;;;;;10.00;9.00;;;;;;;18.93;65.34;94475.28;4985443;28;20030;-78
2022/08/16 04:43:02;;;;;;;9.88;8.88;;;;;;;18.87;65.57;94470.75;5029658;28;20503;-78
2022/08/16 05:58:58;;;;;;;16.35;13.88;;;;;;;22.74;54.82;94493.94;3629342;27;1326083;-78
2022/08/16 06:01:23;;;;;;;17.50;13.20;;;;;;;22.92;54.45;94485.28;5128024;27;20035;-78
2022/08/16 06:03:48;;;;;;;13.85;12.32;;;;;;;23.15;53.82;94479.50;5126660;28;20035;-76
2022/08/16 06:06:14;;;;;;;13.57;11.68;;;;;;;23.26;53.80;94493.09;5104182;28;20038;-77
2022/08/16 06:08:39;;;;;;;13.15;10.98;;;;;;;23.50;53.47;94481.72;5075235;28;20032;-77
2022/08/16 06:11:07;;;;;;;13.02;10.63;;;;;;;23.56;53.00;94491.44;5109956;28;20054;-77
2022/08/16 06:13:33;;;;;;;14.43;11.15;;;;;;;23.76;52.05;94488.69;5082574;28;20085;-78
2022/08/16 06:15:59;;;;;;;12.82;10.95;;;;;;;23.57;51.83;94440.06;5099271;28;20062;-77
2022/08/16 06:18:24;;;;;;;11.50;10.30;;;;;;;23.64;51.79;94438.16;5110777;28;20023;-78
2022/08/16 06:20:50;;;;;;;12.48;11.18;;;;;;;24.07;51.69;94481.69;5112741;28;20030;-77
2022/08/16 06:23:16;;;;;;;11.45;10.02;;;;;;;24.25;51.25;94483.56;5112589;28;20172;-76
2022/08/16 06:25:41;;;;;;;13.02;10.35;;;;;;;24.33;51.59;94488.59;5106400;28;20102;-75
2022/08/16 06:28:09;;;;;;;11.05;9.75;;;;;;;24.39;50.74;94482.41;5108477;28;20019;-76
2022/08/16 06:30:34;;;;;;;10.65;9.55;;;;;;;24.52;49.88;94478.81;5096728;28;20032;-76
2022/08/16 06:33:00;;;;;;;11.45;10.25;;;;;;;24.65;50.13;94483.16;5103824;27;20027;-76
2022/08/16 06:35:26;;;;;;;11.02;9.98;;;;;;;24.79;49.96;94481.16;5104245;28;20032;-76
2022/08/16 06:37:51;;;;;;;10.75;9.65;;;;;;;24.82;49.20;94468.22;5092333;28;20528;-76
2022/08/16 06:40:16;;;;;;;11.20;10.00;;;;;;;24.88;49.25;94471.88;5092124;28;20482;-76
2022/08/16 06:42:44;;;;;;;11.55;10.35;;;;;;;24.84;49.71;94478.66;5091907;28;20408;-76
2022/08/16 06:45:10;;;;;;;10.82;9.82;;;;;;;25.00;49.04;94475.38;5075116;28;20123;-76
2022/08/16 06:47:35;;;;;;;10.23;9.23;;;;;;;25.13;48.93;94475.22;5091900;28;20075;-76
2022/08/16 06:50:01;;;;;;;10.85;8.88;;;;;;;25.14;48.25;94454.75;5091951;28;20028;-76
2022/08/16 06:52:29;;;;;;;11.25;7.60;;;;;;;25.23;47.22;94482.66;5093220;28;20024;-75
2022/08/16 06:54:54;;;;;;;9.75;8.18;;;;;;;25.03;47.36;94458.19;5074266;28;20111;-76
2022/08/16 06:57:19;;;;;;;9.60;7.78;;;;;;;25.02;47.16;94457.38;5056176;28;20404;-76
2022/08/16 06:59:45;;;;;;;10.82;8.57;;;;;;;24.94;47.63;94463.81;5072579;28;20271;-76
2022/08/16 07:02:11;;;;;;;9.80;8.85;;;;;;;25.17;48.27;94467.63;5089316;28;20073;-76
2022/08/16 07:04:36;;;;;;;10.38;8.57;;;;;;;25.25;47.60;94456.66;5072584;28;20040;-76
2022/08/16 07:07:02;;;;;;;10.35;8.57;;;;;;;25.39;46.95;94442.16;5090868;28;20032;-76
2022/08/16 07:09:30;;;;;;;9.95;8.40;;;;;;;25.42;46.85;94433.72;5072837;28;20496;-77
2022/08/16 07:11:56;;;;;;;9.18;8.05;;;;;;;25.59;47.51;94456.97;5057860;28;20445;-77
2022/08/16 07:14:22;;;;;;;10.45;8.85;;;;;;;25.31;47.11;94413.22;5092667;28;20489;-76
2022/08/16 07:16:48;;;;;;;9.10;8.20;;;;;;;25.71;46.85;94451.69;5091164;28;20071;-76
2022/08/16 07:19:15;;;;;;;10.50;8.13;;;;;;;25.90;46.34;94452.44;5092485;28;20079;-77
2022/08/16 07:21:41;;;;;;;9.82;8.50;;;;;;;25.76;46.04;94401.25;5092227;28;20425;-77
2022/08/16 07:24:07;;;;;;;10.50;9.38;;;;;;;25.85;46.09;94398.06;5091097;28;20032;-78
2022/08/16 07:26:33;;;;;;;11.80;7.97;;;;;;;26.16;45.70;94429.84;5091846;28;20060;-78
2022/08/16 07:28:59;;;;;;;10.90;8.52;;;;;;;26.03;45.34;94383.81;5092622;28;20111;-77
2022/08/16 07:31:24;;;;;;;9.55;8.55;;;;;;;25.99;45.79;94380.03;5091914;28;20032;-77
2022/08/16 07:33:50;;;;;;;9.48;8.57;;;;;;;26.27;45.02;94397.91;5091900;28;20038;-77
2022/08/16 07:36:15;;;;;;;12.70;8.05;;;;;;;26.57;44.38;94430.75;5092114;28;20073;-77
2022/08/16 07:38:41;;;;;;;10.20;8.10;;;;;;;26.62;44.32;94428.19;5073927;28;20042;-77
2022/08/16 07:41:07;;;;;;;8.57;7.78;;;;;;;26.20;44.81;94383.09;5090868;28;20021;-78
2022/08/16 07:43:32;;;;;;;10.18;8.52;;;;;;;26.45;44.22;94388.16;5091825;28;20110;-77
2022/08/16 07:45:58;;;;;;;8.13;7.43;;;;;;;26.81;43.59;94437.63;5092071;28;20055;-77
2022/08/16 07:48:24;;;;;;;8.75;7.85;;;;;;;26.60;44.10;94401.78;5090260;28;20028;-77
2022/08/16 07:50:49;;;;;;;9.48;8.57;;;;;;;26.56;43.48;94397.97;5090437;28;20032;-77
2022/08/16 07:53:15;;;;;;;8.38;7.43;;;;;;;26.39;44.31;94410.41;5091772;28;20077;-78
2022/08/16 07:55:40;;;;;;;8.75;7.90;;;;;;;26.33;44.28;94430.78;5090426;28;20420;-77
2022/08/16 07:58:06;;;;;;;9.88;7.57;;;;;;;26.54;44.07;94436.53;5074055;28;20032;-77
2022/08/16 08:00:32;;;;;;;8.35;7.55;;;;;;;26.67;44.68;94436.28;5111857;28;20055;-77
2022/08/16 08:02:59;;;;;;;9.18;8.15;;;;;;;26.30;43.98;94405.44;5111560;28;20023;-77
2022/08/16 08:05:24;;;;;;;11.60;7.72;;;;;;;26.25;44.77;94402.66;5093703;28;20527;-77
2022/08/16 08:07:52;;;;;;;8.07;7.28;;;;;;;26.56;43.85;94413.97;5111921;28;20031;-76
2022/08/16 08:10:18;;;;;;;10.07;7.60;;;;;;;26.66;44.14;94442.63;5077168;28;20028;-76
2022/08/16 08:12:45;;;;;;;10.10;7.97;;;;;;;26.67;43.61;94415.78;5111384;28;20032;-77
2022/08/16 08:15:11;;;;;;;10.05;7.38;;;;;;;26.75;43.81;94411.94;5077048;28;20453;-77
2022/08/16 08:17:38;;;;;;;8.15;7.30;;;;;;;27.14;42.62;94450.25;5111482;28;20377;-77
2022/08/16 08:20:06;;;;;;;8.68;7.63;;;;;;;27.03;43.24;94411.13;5111365;28;20028;-77
2022/08/16 08:22:31;;;;;;;10.27;8.52;;;;;;;27.14;42.97;94410.25;5076756;28;20024;-76
2022/08/16 08:24:57;;;;;;;11.13;8.45;;;;;;;26.96;43.20;94418.44;5111535;28;20046;-77
2022/08/16 08:27:23;;;;;;;9.43;7.60;;;;;;;27.21;42.48;94438.66;5111437;28;20034;-76
2022/08/16 08:29:48;;;;;;;9.98;7.90;;;;;;;27.40;42.21;94445.41;5111520;28;20031;-76
2022/08/16 08:32:14;;;;;;;8.88;7.40;;;;;;;27.28;42.09;94418.00;5093355;28;20032;-77
2022/08/16 08:34:40;;;;;;;8.60;7.38;;;;;;;27.49;41.49;94429.81;5111280;28;20032;-77
2022/08/16 08:37:06;;;;;;;13.10;7.88;;;;;;;27.68;41.82;94457.88;5093531;28;20034;-77
2022/08/16 08:39:33;;;;;;;9.40;7.78;;;;;;;27.43;40.41;94428.91;5111340;28;20137;-76
2022/08/16 08:41:59;;;;;;;10.30;7.63;;;;;;;27.57;41.44;94459.56;5111361;28;20035;-77
2022/08/16 08:44:24;;;;;;;11.68;7.85;;;;;;;27.61;41.80;94443.91;5093431;28;20411;-76
2022/08/16 08:46:50;;;;;;;10.90;7.90;;;;;;;27.68;41.14;94454.41;5093344;28;20030;-77
2022/08/16 08:49:19;;;;;;;12.00;7.95;;;;;;;27.76;41.49;94449.47;5111764;28;20077;-77
2022/08/16 08:51:46;;;;;;;8.50;6.88;;;;;;;27.67;41.05;94413.56;5111240;28;20035;-76
2022/08/16 08:54:13;;;;;;;10.43;7.60;;;;;;;27.74;39.87;94414.19;5111885;28;20400;-76
2022/08/16 08:56:40;;;;;;;8.30;7.15;;;;;;;27.73;40.16;94406.47;5111329;28;20030;-78
2022/08/16 08:59:05;;;;;;;8.95;8.05;;;;;;;27.90;40.78;94417.94;5111181;28;20043;-76
2022/08/16 09:01:36;;;;;;;7.97;6.82;;;;;;;28.18;40.26;94454.41;5111275;28;20159;-77
2022/08/16 09:04:04;;;;;;;15.68;8.85;;;;;;;28.22;40.18;94449.38;5093143;28;20047;-76
2022/08/16 09:06:31;;;;;;;10.52;8.05;;;;;;;28.20;40.71;94446.97;5110990;28;20034;-77
2022/08/16 09:08:57;;;;;;;9.32;7.90;;;;;;;27.94;40.13;94402.25;5111080;28;20050;-77
2022/08/16 09:11:22;;;;;;;9.10;8.07;;;;;;;28.38;40.44;94440.50;5111262;28;20023;-77
2022/08/16 09:13:49;;;;;;;9.80;8.00;;;;;;;28.44;39.29;94439.56;5111500;28;20029;-77
2022/08/16 09:16:15;;;;;;;8.70;7.65;;;;;;;28.28;40.74;94438.53;5093037;28;20034;-77
2022/08/16 09:18:41;;;;;;;9.13;7.50;;;;;;;28.45;40.12;94437.72;5093162;28;20067;-76
2022/08/16 09:21:06;;;;;;;8.55;7.50;;;;;;;28.60;38.67;94443.22;5111116;28;20030;-77
2022/08/16 09:23:34;;;;;;;8.55;7.65;;;;;;;28.47;39.40;94423.06;5059355;28;20040;-77
2022/08/16 09:26:00;;;;;;;11.25;7.00;;;;;;;28.15;37.96;94408.69;5110940;28;20028;-76
2022/08/16 09:28:27;;;;;;;10.30;7.20;;;;;;;28.30;39.02;94403.56;5111303;28;20031;-76
2022/08/16 09:30:53;;;;;;;8.93;7.28;;;;;;;28.74;39.55;94441.81;5110947;28;20044;-77
2022/08/16 09:33:19;;;;;;;9.65;7.20;;;;;;;28.87;38.95;94445.97;5111110;28;20028;-76
2022/08/16 09:35:45;;;;;;;8.73;7.35;;;;;;;29.01;38.91;94445.59;5092734;28;20028;-77
2022/08/16 09:38:12;;;;;;;10.27;7.30;;;;;;;28.90;38.43;94400.03;5075777;28;20042;-76
2022/08/16 09:40:38;;;;;;;9.07;7.43;;;;;;;28.89;38.91;94393.09;5078115;28;20024;-77
2022/08/16 09:43:03;;;;;;;9.35;7.68;;;;;;;29.24;37.89;94426.59;5114752;28;20044;-77
2022/08/16 09:45:29;;;;;;;10.98;7.32;;;;;;;29.39;37.89;94425.94;5079463;28;20042;-76
2022/08/16 09:47:55;;;;;;;9.65;8.65;;;;;;;29.36;36.95;94413.91;5079602;28;20039;-77
2022/08/16 09:50:25;;;;;;;7.15;6.32;;;;;;;29.50;35.12;94430.31;5096694;28;20027;-76
2022/08/16 09:52:54;;;;;;;7.45;6.07;;;;;;;29.28;35.01;94384.09;5114654;28;20031;-76
2022/08/16 09:55:19;;;;;;;7.00;6.30;;;;;;;29.60;35.19;94413.56;5114749;28;20645;-77
2022/08/16 09:57:45;;;;;;;8.75;6.22;;;;;;;29.40;35.52;94368.72;5114432;28;20114;-76
2022/08/16 10:00:11;;;;;;;7.75;6.93;;;;;;;29.75;35.17;94408.34;5114329;28;20047;-77
2022/08/16 10:02:39;;;;;;;7.88;6.82;;;;;;;29.74;35.32;94422.00;5095947;28;20088;-76
2022/08/16 10:05:07;;;;;;;9.57;6.57;;;;;;;29.54;33.86;94401.19;5114176;28;20034;-76
2022/08/16 10:07:32;;;;;;;7.53;5.90;;;;;;;29.68;34.27;94417.66;5096007;28;20035;-76
2022/08/16 10:09:58;;;;;;;6.60;6.00;;;;;;;29.53;32.58;94388.88;5114305;28;20023;-76
2022/08/16 10:15:15;;;;;;;6.57;5.32;;;;;;;29.72;33.06;94379.41;5084725;28;20031;-76
2022/08/16 10:17:41;;;;;;;5.90;5.30;;;;;;;29.97;33.33;94416.25;5079652;28;20032;-76
2022/08/16 10:20:10;;;;;;;6.72;5.50;;;;;;;29.99;34.14;94419.50;5114018;28;20084;-76
2022/08/16 10:22:35;;;;;;;5.97;5.07;;;;;;;30.04;32.65;94406.16;5095811;28;20521;-76
2022/08/16 10:25:03;;;;;;;6.60;5.32;;;;;;;30.16;32.28;94410.50;5078985;28;20031;-77
2022/08/16 10:27:29;;;;;;;8.43;5.53;;;;;;;30.23;33.41;94417.28;5095901;28;20182;-76
2022/08/16 10:29:54;;;;;;;5.55;4.95;;;;;;;30.37;32.14;94406.06;5113764;28;20030;-77
2022/08/16 10:32:20;;;;;;;7.80;5.55;;;;;;;30.47;31.98;94409.59;5113791;28;20050;-76
2022/08/16 10:34:45;;;;;;;9.35;5.10;;;;;;;30.45;31.11;94400.22;5095335;28;20024;-76
2022/08/16 10:37:11;;;;;;;5.30;4.32;;;;;;;30.54;29.13;94411.28;5095666;28;20477;-77
2022/08/16 10:39:38;;;;;;;6.32;4.70;;;;;;;30.42;29.26;94371.28;5114029;28;20110;-77
2022/08/16 10:42:04;;;;;;;6.45;4.60;;;;;;;30.72;29.75;94408.09;5079085;28;20475;-77
2022/08/16 10:44:30;;;;;;;5.80;5.00;;;;;;;30.73;30.38;94409.75;5095559;28;20067;-76
2022/08/16 10:46:56;;;;;;;6.72;5.10;;;;;;;30.70;31.62;94402.19;5095702;28;20473;-76
2022/08/16 10:49:21;;;;;;;8.57;5.60;;;;;;;30.62;31.76;94405.38;5095481;28;20111;-76
2022/08/16 10:51:46;;;;;;;11.30;5.78;;;;;;;30.57;31.20;94403.50;5095152;28;20040;-76
2022/08/16 10:54:12;;;;;;;6.20;5.10;;;;;;;30.50;30.48;94406.41;5078503;28;20036;-76
2022/08/16 10:56:38;;;;;;;7.97;4.97;;;;;;;30.52;30.19;94403.47;5095120;28;20023;-77
2022/08/16 10:59:07;;;;;;;7.18;5.00;;;;;;;30.63;28.67;94405.13;5091397;28;20044;-76
2022/08/16 11:01:32;;;;;;;6.40;4.32;;;;;;;30.39;28.02;94385.19;5091599;28;20535;-76
2022/08/16 11:04:00;;;;;;;23.20;5.53;;;;;;;30.48;28.60;94407.75;5091606;28;20096;-76
2022/08/16 11:06:26;;;;;;;7.53;5.05;;;;;;;30.63;29.50;94405.13;5075069;28;20417;-76
2022/08/16 11:08:51;;;;;;;5.97;4.72;;;;;;;30.67;28.89;94413.44;5091420;28;20028;-76
2022/08/16 11:11:17;;;;;;;9.60;5.05;;;;;;;30.52;29.99;94382.03;5074854;28;20024;-76
2022/08/16 11:13:47;;;;;;;10.27;5.18;;;;;;;30.84;28.98;94414.09;5091417;28;20119;-76
2022/08/16 11:16:12;;;;;;;;;;;;;;;30.81;30.24;94419.16;5092109;28;20024;-76
2022/08/16 11:18:38;;;;;;;6.80;5.27;;;;;;;30.71;30.69;94398.47;5092790;28;20015;-76
2022/08/16 11:21:03;;;;;;;6.85;4.85;;;;;;;30.89;30.37;94408.72;5074520;28;20157;-77
2022/08/16 11:23:29;;;;;;;7.72;4.93;;;;;;;30.76;30.65;94393.13;5074526;28;20082;-76
2022/08/16 11:25:55;;;;;;;6.68;5.18;;;;;;;30.85;30.73;94396.13;5091166;28;20032;-77
2022/08/16 11:28:23;;;;;;;6.95;5.03;;;;;;;30.79;31.04;94386.44;5091184;28;20031;-76
2022/08/16 11:30:51;;;;;;;7.55;5.65;;;;;;;30.83;30.20;94398.25;5058227;28;20059;-76
2022/08/16 11:33:17;;;;;;;5.70;5.10;;;;;;;30.79;30.94;94387.25;5092504;28;20024;-76
2022/08/16 11:35:42;;;;;;;7.22;4.85;;;;;;;30.88;30.60;94385.69;5057505;28;20023;-76
2022/08/16 11:38:21;;;;;;;6.82;5.22;;;;;;;30.93;30.17;94379.53;5057284;28;20036;-76
2022/08/16 11:40:57;;;;;;;6.95;4.90;;;;;;;30.85;30.37;94383.53;5058079;28;20052;-76
2022/08/16 11:43:33;;;;;;;7.15;5.57;;;;;;;30.82;30.00;94386.75;5058731;28;20043;-76
2022/08/16 11:46:00;;;;;;;5.35;4.85;;;;;;;30.65;30.42;94373.53;5057603;28;20481;-76
2022/08/16 11:48:26;;;;;;;6.80;5.15;;;;;;;30.44;30.19;94363.78;5074097;28;20032;-76
2022/08/16 11:50:53;;;;;;;5.63;5.00;;;;;;;30.49;30.38;94387.94;5090999;28;20490;-76
2022/08/16 11:53:20;;;;;;;5.53;4.75;;;;;;;30.47;30.14;94384.69;5073887;28;20459;-76
2022/08/16 11:55:45;;;;;;;5.85;5.20;;;;;;;30.33;30.48;94370.97;5090895;28;20047;-76
2022/08/16 11:58:11;;;;;;;6.55;4.82;;;;;;;30.26;29.28;94349.78;5074939;28;20060;-77
2022/08/16 12:00:37;;;;;;;7.30;4.90;;;;;;;30.49;30.03;94387.94;5112467;28;20019;-77
2022/08/16 12:03:03;;;;;;;8.63;5.00;;;;;;;30.52;29.72;94391.97;5111570;28;20042;-76
2022/08/16 12:05:29;;;;;;;6.70;4.82;;;;;;;30.54;30.39;94404.03;5093764;28;20023;-76
2022/08/16 12:07:54;;;;;;;6.78;5.05;;;;;;;30.46;30.67;94407.22;5077310;28;20617;-76
2022/08/16 12:10:20;;;;;;;6.18;4.60;;;;;;;30.31;30.79;94420.50;5076925;28;20508;-77
2022/08/16 12:12:45;;;;;;;9.27;4.57;;;;;;;30.24;30.86;94423.44;5093522;28;20055;-76
2022/08/16 12:15:11;;;;;;;8.55;4.03;;;;;;;29.91;30.18;94416.50;5076918;28;20039;-78
2022/08/16 12:17:37;;;;;;;5.80;4.10;;;;;;;29.73;30.11;94405.13;5111752;28;20036;-76
2022/08/16 12:20:08;;;;;;;7.05;4.53;;;;;;;29.56;30.57;94404.41;5076686;28;20108;-77
2022/08/16 12:22:35;;;;;;;5.43;3.80;;;;;;;29.65;30.85;94399.44;5077173;28;20047;-76
2022/08/16 12:25:03;;;;;;;5.82;3.90;;;;;;;29.54;31.11;94355.72;5077200;28;20024;-76
2022/08/16 12:27:28;;;;;;;5.18;3.97;;;;;;;29.71;30.48;94380.47;5076693;28;20024;-76
2022/08/16 12:29:54;;;;;;;6.18;4.10;;;;;;;29.68;31.73;94381.00;5076595;28;20036;-77
2022/08/16 12:32:19;;;;;;;4.97;3.90;;;;;;;29.39;31.17;94377.78;5093420;28;20055;-76
2022/08/16 12:34:45;;;;;;;4.68;4.18;;;;;;;29.43;31.58;94372.75;5076610;28;20277;-76
2022/08/16 12:37:12;;;;;;;5.60;4.35;;;;;;;29.53;32.20;94360.28;5093355;28;20515;-76
2022/08/16 12:39:38;;;;;;;6.40;4.50;;;;;;;29.28;31.36;94352.00;5076762;28;20051;-76
2022/08/16 12:42:03;;;;;;;5.03;4.53;;;;;;;29.50;32.06;94362.63;5076443;28;20393;-76